Time;durP1;ratioP1;P1;durP2;ratioP2;P2;SDS_P1;SDS_P2;PMS_P1;PMS_P2;Temp;Humidity;BMP_temperature;BMP_pressure;BME280_temperature;BME280_humidity;BME280_pressure;Samples;Min_cycle;Max_cycle;Signal;HPM_P1;HPM_P2
2022/01/04 00:02:06;;;;;;;0.80;0.80;;;5.00;99.90;5.20;96241.00;;;;5030074;28;20491;-85
2022/01/04 00:04:55;;;;;;;1.13;0.90;;;5.10;99.90;5.30;96238.00;;;;5023183;28;20672;-84
2022/01/04 00:07:45;;;;;;;1.40;1.30;;;5.20;99.90;5.30;96228.00;;;;5031951;28;20213;-84
2022/01/04 00:10:34;;;;;;;1.70;1.20;;;5.20;99.90;5.20;96218.00;;;;5034963;28;20220;-82
2022/01/04 00:13:23;;;;;;;4.77;1.73;;;5.20;99.90;5.00;96221.00;;;;5027693;28;20207;-83
2022/01/04 00:16:13;;;;;;;2.57;1.20;;;5.20;99.90;5.10;96209.00;;;;5040195;28;20209;-83
2022/01/04 00:19:02;;;;;;;1.00;0.77;;;5.10;99.90;5.20;96213.00;;;;5030894;28;20249;-81
2022/01/04 00:21:51;;;;;;;1.30;1.07;;;5.10;99.90;5.10;96203.00;;;;5050661;28;20240;-79
2022/01/04 00:24:41;;;;;;;1.00;0.90;;;5.10;99.90;4.70;96185.00;;;;5046987;28;20216;-84
2022/01/04 00:27:30;;;;;;;1.10;0.93;;;5.10;99.90;4.40;96181.00;;;;5026279;28;20699;-87
2022/01/04 00:30:19;;;;;;;1.90;1.23;;;4.90;99.90;4.50;96182.00;;;;5030101;28;20209;-85
2022/01/04 00:33:11;;;;;;;1.83;1.30;;;4.80;99.90;4.50;96178.00;;;;5030641;28;20212;-85
2022/01/04 00:36:00;;;;;;;5.07;1.70;;;4.70;99.90;4.50;96177.00;;;;5024215;28;20208;-86
2022/01/04 00:38:49;;;;;;;3.47;1.93;;;4.70;99.90;4.40;96171.00;;;;5023102;28;20221;-83
2022/01/04 00:41:39;;;;;;;2.27;1.53;;;4.60;99.90;4.50;96175.00;;;;5034194;28;20229;-81
2022/01/04 00:44:28;;;;;;;2.73;1.40;;;4.60;99.90;4.20;96194.00;;;;5023648;28;20208;-86
2022/01/04 00:47:20;;;;;;;0.90;0.90;;;4.60;99.90;4.00;96197.00;;;;5018076;28;20681;-82
2022/01/04 00:50:08;;;;;;;0.97;0.90;;;4.50;99.90;4.00;96197.00;;;;5026854;28;20209;-86
2022/01/04 00:52:59;;;;;;;1.07;0.80;;;4.50;99.90;4.30;96190.00;;;;5037462;28;20691;-85
2022/01/04 00:55:48;;;;;;;0.80;0.80;;;4.40;99.90;4.60;96183.00;;;;5036483;28;20231;-84
2022/01/04 00:58:38;;;;;;;1.33;0.90;;;4.40;99.90;4.40;96173.00;;;;5034145;28;20225;-82
2022/01/04 01:01:27;;;;;;;0.83;0.77;;;4.50;99.90;4.40;96168.00;;;;5023363;28;20232;-85
2022/01/04 01:04:16;;;;;;;2.40;1.03;;;4.50;99.90;4.30;96167.00;;;;5033729;28;20478;-82
2022/01/04 01:07:05;;;;;;;0.73;0.70;;;4.40;99.90;4.50;96157.00;;;;5032391;28;20213;-85
2022/01/04 01:10:16;;;;;;;0.70;0.70;;;4.50;99.90;4.50;96161.00;;;;5034513;28;20205;-83
2022/01/04 01:13:05;;;;;;;2.00;0.80;;;4.50;99.90;4.40;96152.00;;;;5035600;28;20212;-85
2022/01/04 01:15:55;;;;;;;1.30;1.20;;;4.50;99.90;3.90;96160.00;;;;5039678;28;20243;-84
2022/01/04 01:18:45;;;;;;;1.10;0.90;;;4.40;99.90;4.00;96145.00;;;;5045873;28;20240;-84
2022/01/04 01:21:34;;;;;;;1.37;1.27;;;4.40;99.90;4.30;96149.00;;;;5027764;28;20231;-84
2022/01/04 01:24:23;;;;;;;2.03;1.30;;;4.30;99.90;4.40;96141.00;;;;5021977;28;20206;-85
2022/01/04 01:27:11;;;;;;;2.00;1.60;;;4.40;99.90;4.20;96139.00;;;;5034301;28;20682;-85
2022/01/04 01:30:01;;;;;;;1.77;1.27;;;4.40;99.90;3.90;96131.00;;;;5030281;28;20197;-85
2022/01/04 01:32:51;;;;;;;1.03;0.83;;;4.30;99.90;3.80;96132.00;;;;5032123;28;20202;-86
2022/01/04 01:35:41;;;;;;;1.33;1.00;;;4.20;99.90;4.00;96122.00;;;;5041325;28;20201;-85
2022/01/04 01:38:30;;;;;;;1.17;1.00;;;4.20;99.90;4.20;96133.00;;;;5033128;28;20232;-85
2022/01/04 01:41:19;;;;;;;1.20;0.90;;;4.20;99.90;3.90;96124.00;;;;5026148;28;20229;-84
2022/01/04 01:44:08;;;;;;;1.43;1.20;;;4.20;99.90;3.40;96117.00;;;;5034629;28;20205;-86
2022/01/04 01:46:57;;;;;;;1.60;1.10;;;4.10;99.90;3.60;96132.00;;;;5017462;28;20433;-86
2022/01/04 01:49:47;;;;;;;0.80;0.80;;;4.00;99.90;3.70;96124.00;;;;5037294;28;20432;-86
2022/01/04 01:52:36;;;;;;;1.20;0.90;;;3.90;99.90;3.40;96118.00;;;;5032805;28;20197;-86
2022/01/04 01:55:26;;;;;;;2.30;1.13;;;3.90;99.90;3.80;96097.00;;;;5032662;28;20198;-85
2022/01/04 01:58:16;;;;;;;1.10;1.00;;;3.90;99.90;3.90;96078.00;;;;5037856;28;20782;-84
2022/01/04 02:01:04;;;;;;;2.23;1.77;;;3.90;99.90;3.80;96091.00;;;;5033050;28;20220;-86
2022/01/04 02:03:53;;;;;;;1.20;0.90;;;3.90;99.90;3.50;96090.00;;;;5031920;28;20440;-83
2022/01/04 02:06:44;;;;;;;2.23;0.83;;;3.80;99.90;3.20;96077.00;;;;5033705;28;20440;-86
2022/01/04 02:09:42;;;;;;;2.57;1.53;;;3.70;99.90;3.50;96086.00;;;;5028899;28;20428;-86
2022/01/04 02:12:33;;;;;;;0.83;0.77;;;3.40;99.90;3.80;96088.00;;;;5034924;28;20229;-86
2022/01/04 02:15:25;;;;;;;2.70;1.10;;;3.80;99.90;3.50;96084.00;;;;5028140;28;20435;-81
2022/01/04 02:18:14;;;;;;;1.10;0.97;;;3.80;99.90;3.40;96069.00;;;;5028834;28;20426;-85
2022/01/04 02:21:05;;;;;;;1.97;0.90;;;3.70;99.90;3.10;96072.00;;;;5023170;28;20743;-85
2022/01/04 02:23:53;;;;;;;1.23;1.00;;;3.60;99.90;3.20;96068.00;;;;5031855;28;20474;-83
2022/01/04 02:26:43;;;;;;;0.80;0.80;;;3.50;99.90;3.10;96060.00;;;;5034167;28;20808;-84
2022/01/04 02:29:32;;;;;;;0.93;0.80;;;3.50;99.90;3.20;96053.00;;;;5033428;28;20982;-84
2022/01/04 02:32:21;;;;;;;1.70;1.27;;;3.40;99.90;3.10;96051.00;;;;5034788;28;20450;-86
2022/01/04 02:35:11;;;;;;;1.93;0.90;;;3.40;99.90;3.20;96047.00;;;;5037189;28;20825;-85
2022/01/04 02:38:03;;;;;;;1.67;1.23;;;3.40;99.90;3.40;96044.00;;;;5047872;28;20523;-85
2022/01/04 02:40:52;;;;;;;1.40;0.97;;;3.40;99.90;3.30;96041.00;;;;5038246;28;20483;-84
2022/01/04 02:43:40;;;;;;;1.40;1.17;;;3.50;99.90;2.90;96033.00;;;;5030463;28;20801;-82
2022/01/04 02:46:29;;;;;;;0.73;0.73;;;3.40;99.90;2.80;96034.00;;;;5023352;28;20428;-85
2022/01/04 02:49:18;;;;;;;1.07;0.70;;;3.30;99.90;2.70;96024.00;;;;5036199;28;20419;-83
2022/01/04 02:52:08;;;;;;;2.67;1.17;;;3.30;99.90;2.70;96008.00;;;;5034767;28;20454;-81
2022/01/04 02:54:58;;;;;;;1.00;0.83;;;3.20;99.90;2.60;96004.00;;;;5033405;28;20436;-86
2022/01/04 02:57:47;;;;;;;0.63;0.63;;;3.10;99.90;2.80;96004.00;;;;5030974;28;20421;-85
2022/01/04 03:00:36;;;;;;;1.93;0.67;;;3.10;99.90;3.00;95994.00;;;;5031896;28;20476;-84
2022/01/04 03:03:25;;;;;;;0.70;0.70;;;3.10;99.90;3.00;95995.00;;;;5026124;28;20471;-82
2022/01/04 03:06:15;;;;;;;0.83;0.80;;;3.10;99.90;2.90;95999.00;;;;5029363;28;20961;-85
2022/01/04 03:09:05;;;;;;;1.73;0.80;;;3.20;99.90;3.00;95986.00;;;;5025777;28;20956;-83
2022/01/04 03:11:56;;;;;;;1.03;0.60;;;3.20;99.90;3.10;95983.00;;;;5031554;28;20472;-84
2022/01/04 03:14:45;;;;;;;1.17;1.03;;;3.20;99.90;3.30;95985.00;;;;5040794;28;20448;-87
2022/01/04 03:17:34;;;;;;;1.47;0.60;;;3.30;99.90;3.40;95991.00;;;;5031127;28;21013;-83
2022/01/04 03:20:22;;;;;;;1.80;1.13;;;3.30;99.90;3.40;95965.00;;;;5037641;28;21013;-86
2022/01/04 03:23:11;;;;;;;1.07;0.87;;;3.40;99.90;3.30;95977.00;;;;5029633;28;20433;-84
2022/01/04 03:26:00;;;;;;;1.00;0.80;;;3.40;99.90;3.40;95964.00;;;;5026916;28;20215;-82
2022/01/04 03:28:50;;;;;;;2.33;1.13;;;3.40;99.90;3.40;95957.00;;;;5042098;28;20448;-80
2022/01/04 03:31:40;;;;;;;2.57;2.37;;;3.40;99.90;3.40;95979.00;;;;5053568;28;20452;-79
2022/01/04 03:34:29;;;;;;;0.90;0.90;;;3.50;99.90;3.40;95959.00;;;;5036102;28;20463;-85
2022/01/04 03:37:18;;;;;;;0.90;0.80;;;3.50;99.90;3.50;95943.00;;;;5036228;28;20668;-86
2022/01/04 03:40:08;;;;;;;1.37;0.90;;;3.50;99.90;3.60;95953.00;;;;5044135;28;20229;-86
2022/01/04 03:42:57;;;;;;;1.03;0.80;;;3.50;99.90;3.40;95945.00;;;;5030434;28;20436;-85
2022/01/04 03:45:48;;;;;;;1.10;0.57;;;3.60;99.90;3.40;95915.00;;;;5029557;28;20443;-86
2022/01/04 03:48:38;;;;;;;1.13;0.80;;;3.60;99.90;3.40;95904.00;;;;5025338;28;20200;-86
2022/01/04 03:51:27;;;;;;;1.93;1.40;;;3.60;99.90;3.40;95894.00;;;;5030018;28;20221;-85
2022/01/04 03:54:19;;;;;;;1.93;1.53;;;3.60;99.90;3.50;95887.00;;;;5026402;28;20260;-85
2022/01/04 03:57:08;;;;;;;2.30;1.20;;;3.60;99.90;3.80;95886.00;;;;5034123;28;20427;-86
2022/01/04 03:59:57;;;;;;;0.80;0.77;;;3.60;99.90;3.30;95902.00;;;;5033272;28;20471;-83
2022/01/04 04:02:47;;;;;;;1.17;0.80;;;3.70;99.90;3.00;95893.00;;;;5044075;28;20452;-85
2022/01/04 04:05:36;;;;;;;1.40;0.83;;;3.60;99.90;3.20;95889.00;;;;5031148;28;20204;-85
2022/01/04 04:08:25;;;;;;;4.00;1.03;;;3.50;99.90;3.50;95875.00;;;;5032984;28;20424;-85
2022/01/04 04:11:14;;;;;;;1.80;0.93;;;3.60;99.90;3.20;95888.00;;;;5025125;28;20440;-85
2022/01/04 04:14:03;;;;;;;1.10;0.87;;;3.50;99.90;3.30;95886.00;;;;5035749;28;20432;-85
2022/01/04 04:16:52;;;;;;;0.60;0.60;;;3.60;99.90;3.30;95892.00;;;;5034598;28;20803;-83
2022/01/04 04:19:43;;;;;;;1.00;1.00;;;3.60;99.90;3.40;95895.00;;;;5043275;28;20970;-85
2022/01/04 04:22:32;;;;;;;2.60;1.00;;;3.60;99.90;3.60;95894.00;;;;5048161;28;20458;-83
2022/01/04 04:25:21;;;;;;;0.80;0.80;;;3.60;99.90;3.40;95899.00;;;;5031668;28;20436;-85
2022/01/04 04:28:10;;;;;;;3.60;1.13;;;3.60;99.90;3.40;95880.00;;;;5033280;28;20439;-82
2022/01/04 04:31:01;;;;;;;0.70;0.70;;;3.60;99.90;3.60;95879.00;;;;5028670;28;20962;-83
2022/01/04 04:33:50;;;;;;;0.80;0.80;;;3.60;99.90;3.90;95873.00;;;;5034931;28;20436;-82
2022/01/04 04:36:40;;;;;;;0.97;0.87;;;3.70;99.90;4.00;95871.00;;;;5040464;28;20442;-84
2022/01/04 04:39:29;;;;;;;2.40;0.80;;;3.80;99.90;3.80;95872.00;;;;5026078;28;20212;-86
2022/01/04 04:42:18;;;;;;;1.43;0.90;;;3.90;99.90;3.60;95868.00;;;;5034136;28;20602;-83
2022/01/04 04:45:10;;;;;;;1.73;0.83;;;3.80;99.90;3.30;95868.00;;;;5032899;28;20208;-83
2022/01/04 04:47:59;;;;;;;1.27;0.90;;;3.80;99.90;3.50;95861.00;;;;5034251;28;20834;-85
2022/01/04 04:50:48;;;;;;;1.27;1.00;;;3.80;99.90;3.70;95869.00;;;;5034071;28;20217;-83
2022/01/04 04:53:38;;;;;;;1.43;0.93;;;3.80;99.90;3.10;95867.00;;;;5031650;28;20217;-83
2022/01/04 04:56:27;;;;;;;1.03;0.90;;;3.70;99.90;3.30;95870.00;;;;5027724;28;20432;-81
2022/01/04 04:59:16;;;;;;;1.07;0.80;;;3.60;99.90;3.30;95861.00;;;;5033824;28;20205;-85
2022/01/04 05:02:07;;;;;;;2.10;0.97;;;3.60;99.90;3.20;95863.00;;;;5026637;28;20460;-81
2022/01/04 05:04:57;;;;;;;0.70;0.70;;;3.60;99.90;3.50;95878.00;;;;5030822;28;20440;-86
2022/01/04 05:07:45;;;;;;;0.90;0.90;;;3.60;99.90;3.40;95877.00;;;;5033704;28;20427;-84
2022/01/04 05:10:36;;;;;;;2.50;0.80;;;3.60;99.90;3.30;95869.00;;;;5034276;28;20451;-84
2022/01/04 05:13:24;;;;;;;3.37;1.27;;;3.60;99.90;3.60;95855.00;;;;5041582;28;20635;-84
2022/01/04 05:16:13;;;;;;;0.77;0.73;;;3.70;99.90;3.90;95857.00;;;;5041100;28;20792;-82
2022/01/04 05:19:02;;;;;;;1.17;1.07;;;3.70;99.90;3.90;95859.00;;;;5036053;28;20428;-84
2022/01/04 05:21:51;;;;;;;1.67;1.20;;;3.80;99.90;4.00;95844.00;;;;5034553;28;20484;-83
2022/01/04 05:24:40;;;;;;;1.50;0.80;;;3.90;99.90;4.10;95851.00;;;;5034457;28;20208;-83
2022/01/04 05:27:30;;;;;;;3.23;1.37;;;3.90;99.90;4.20;95844.00;;;;5033389;28;20205;-84
2022/01/04 05:30:19;;;;;;;1.73;1.27;;;4.00;99.90;4.20;95830.00;;;;5033294;28;20440;-84
2022/01/04 05:33:08;;;;;;;1.40;1.13;;;4.10;99.90;3.90;95830.00;;;;5032056;28;20205;-83
2022/01/04 05:35:57;;;;;;;1.87;1.00;;;4.10;99.90;3.90;95826.00;;;;5025128;28;20217;-85
2022/01/04 05:38:47;;;;;;;1.10;1.00;;;4.00;99.90;3.90;95823.00;;;;5034606;28;20576;-83
2022/01/04 05:41:36;;;;;;;2.17;0.90;;;4.00;99.90;3.90;95812.00;;;;5032358;28;20237;-85
2022/01/04 05:44:26;;;;;;;1.73;0.93;;;4.00;99.90;3.90;95811.00;;;;5033039;28;20193;-84
2022/01/04 05:47:15;;;;;;;2.83;1.27;;;4.00;99.90;3.90;95811.00;;;;5032757;28;20585;-83
2022/01/04 05:50:05;;;;;;;0.80;0.73;;;4.00;99.90;3.80;95809.00;;;;5032013;28;20443;-85
2022/01/04 05:52:54;;;;;;;1.70;1.53;;;4.00;99.90;3.80;95800.00;;;;5033359;28;20575;-85
2022/01/04 05:55:43;;;;;;;0.70;0.70;;;4.00;99.90;4.00;95823.00;;;;5033558;28;20579;-82
2022/01/04 05:58:32;;;;;;;0.70;0.70;;;4.00;99.90;3.80;95809.00;;;;5021772;28;20206;-85
2022/01/04 06:01:22;;;;;;;2.87;0.70;;;4.00;99.90;3.70;95807.00;;;;5033662;28;20279;-82
2022/01/04 06:04:11;;;;;;;0.97;0.60;;;4.00;99.90;3.90;95789.00;;;;5032842;28;20206;-83
2022/01/04 06:07:00;;;;;;;1.40;1.30;;;4.00;99.90;4.10;95792.00;;;;5032542;28;20207;-85
2022/01/04 06:09:52;;;;;;;0.73;0.73;;;4.00;99.90;4.20;95799.00;;;;5021432;28;20193;-83
2022/01/04 06:15:47;;;;;;;2.27;1.50;;;4.10;99.90;4.00;95788.00;;;;5036428;28;20200;-82
2022/01/04 06:18:41;;;;;;;6.30;1.00;;;4.10;99.90;4.10;95775.00;;;;5033188;28;20201;-86
2022/01/04 06:21:30;;;;;;;1.30;1.00;;;4.10;99.90;4.10;95767.00;;;;5041627;28;20228;-84
2022/01/04 06:24:19;;;;;;;3.03;0.97;;;4.10;99.90;4.10;95776.00;;;;5028484;28;20216;-85
2022/01/04 06:27:09;;;;;;;1.00;1.00;;;4.10;99.90;4.20;95767.00;;;;5031996;28;20201;-84
2022/01/04 06:29:59;;;;;;;1.43;0.73;;;4.20;99.90;4.10;95765.00;;;;5031493;28;20200;-86
2022/01/04 06:32:48;;;;;;;1.20;0.70;;;4.20;99.90;3.90;95767.00;;;;5032886;28;20197;-83
2022/01/04 06:35:38;;;;;;;1.57;1.10;;;4.20;99.90;3.60;95756.00;;;;5032271;28;20583;-82
2022/01/04 06:38:27;;;;;;;0.70;0.70;;;4.10;99.90;3.60;95762.00;;;;5031540;28;20201;-84
2022/01/04 06:41:16;;;;;;;2.67;1.10;;;4.00;99.90;3.60;95728.00;;;;5037466;28;20773;-81
2022/01/04 06:44:06;;;;;;;0.50;0.50;;;3.90;99.90;3.80;95730.00;;;;5047100;28;20220;-81
2022/01/04 06:46:56;;;;;;;1.20;0.90;;;3.90;99.90;3.80;95733.00;;;;5027260;28;20210;-85
2022/01/04 06:49:45;;;;;;;2.93;0.87;;;3.90;99.90;4.00;95717.00;;;;5038140;28;20243;-85
2022/01/04 06:52:35;;;;;;;0.97;0.90;;;4.00;99.90;4.00;95733.00;;;;5032374;28;20432;-83
2022/01/04 06:55:24;;;;;;;2.00;1.50;;;4.00;99.90;3.70;95729.00;;;;5031488;28;20208;-85
2022/01/04 06:58:13;;;;;;;2.80;1.70;;;3.90;99.90;3.80;95711.00;;;;5012187;28;20205;-86
2022/01/04 07:01:02;;;;;;;4.63;3.33;;;3.90;99.90;3.80;95722.00;;;;5029734;28;20228;-83
2022/01/04 07:03:51;;;;;;;5.07;3.63;;;3.90;99.90;3.80;95724.00;;;;5040938;28;20296;-82
2022/01/04 07:06:40;;;;;;;4.63;2.27;;;4.00;99.90;4.10;95722.00;;;;5043530;28;20467;-85
2022/01/04 07:09:31;;;;;;;3.03;2.50;;;4.00;99.90;4.00;95709.00;;;;5032805;28;20197;-83
2022/01/04 07:12:20;;;;;;;2.60;2.20;;;4.00;99.90;4.00;95717.00;;;;5041607;28;20594;-85
2022/01/04 07:15:10;;;;;;;3.23;1.27;;;4.00;99.90;3.80;95707.00;;;;5038223;28;20200;-86
2022/01/04 07:17:58;;;;;;;6.13;1.20;;;4.00;99.90;3.90;95711.00;;;;5024534;28;20935;-86
2022/01/04 07:20:47;;;;;;;1.70;1.17;;;4.00;99.90;4.00;95704.00;;;;5031319;28;20453;-84
2022/01/04 07:23:36;;;;;;;1.60;1.00;;;4.00;99.90;3.90;95718.00;;;;5031282;28;20443;-85
2022/01/04 07:26:27;;;;;;;1.20;1.10;;;4.10;99.90;3.90;95710.00;;;;5031775;28;20217;-83
2022/01/04 07:29:16;;;;;;;1.07;0.93;;;4.10;99.90;4.20;95715.00;;;;5027134;28;20212;-82
2022/01/04 07:32:05;;;;;;;1.13;1.03;;;4.20;99.90;4.50;95709.00;;;;5030706;28;20229;-83
2022/01/04 07:34:54;;;;;;;2.03;1.40;;;4.20;99.90;4.60;95695.00;;;;5014014;28;20421;-85
2022/01/04 07:37:43;;;;;;;1.80;1.20;;;4.30;99.90;4.40;95704.00;;;;5026541;28;20209;-86
2022/01/04 07:40:32;;;;;;;1.43;1.20;;;4.30;99.90;4.30;95691.00;;;;5022178;28;20229;-85
2022/01/04 07:43:22;;;;;;;1.53;1.43;;;4.40;99.90;4.20;95695.00;;;;5030395;28;20236;-83
2022/01/04 07:46:11;;;;;;;3.03;0.90;;;4.30;99.90;4.30;95692.00;;;;5027472;28;20205;-85
2022/01/04 07:49:00;;;;;;;0.93;0.93;;;4.40;99.90;4.00;95695.00;;;;5017146;28;20194;-84
2022/01/04 07:51:49;;;;;;;1.07;1.00;;;4.30;99.90;4.00;95689.00;;;;5021609;28;20248;-85
2022/01/04 07:54:38;;;;;;;2.10;1.10;;;4.30;99.90;4.20;95693.00;;;;5022261;28;20201;-82
2022/01/04 07:57:27;;;;;;;6.63;4.13;;;4.30;99.90;4.20;95688.00;;;;5037325;28;20207;-85
2022/01/04 08:00:20;;;;;;;7.27;5.20;;;4.30;99.90;4.30;95687.00;;;;5031102;28;20244;-81
2022/01/04 08:03:10;;;;;;;5.00;3.23;;;4.30;99.90;4.30;95682.00;;;;5041601;28;20270;-86
2022/01/04 08:05:59;;;;;;;4.07;3.20;;;4.40;99.90;4.20;95665.00;;;;5033769;28;20589;-84
2022/01/04 08:08:48;;;;;;;2.13;1.87;;;4.40;99.90;4.30;95667.00;;;;5030412;28;20205;-83
2022/01/04 08:11:38;;;;;;;4.50;2.67;;;4.40;99.90;4.30;95665.00;;;;5030766;28;20708;-84
2022/01/04 08:14:27;;;;;;;5.73;2.47;;;4.40;99.90;4.30;95653.00;;;;5017501;28;20197;-85
2022/01/04 08:17:17;;;;;;;2.80;1.57;;;4.40;99.90;4.50;95665.00;;;;5030961;28;20233;-84
2022/01/04 08:20:08;;;;;;;8.57;2.40;;;4.50;99.90;4.70;95673.00;;;;5030541;28;20205;-84
2022/01/04 08:22:59;;;;;;;4.17;2.00;;;4.50;99.90;4.80;95663.00;;;;5030803;28;20396;-83
2022/01/04 08:25:47;;;;;;;5.30;2.53;;;4.60;99.90;4.90;95647.00;;;;5031177;28;20194;-86
2022/01/04 08:28:36;;;;;;;2.97;2.00;;;4.60;99.90;4.90;95667.00;;;;5025470;28;20209;-84
2022/01/04 08:31:26;;;;;;;6.37;2.63;;;4.70;99.90;4.80;95670.00;;;;5030546;28;20221;-84
2022/01/04 08:34:16;;;;;;;15.93;5.47;;;4.70;99.90;4.20;95656.00;;;;5026162;28;20426;-84
2022/01/04 08:37:05;;;;;;;16.20;5.57;;;4.70;99.90;4.10;95666.00;;;;5027466;28;20208;-85
2022/01/04 08:39:54;;;;;;;16.57;6.93;;;4.60;99.90;4.50;95664.00;;;;5029332;28;20212;-85
2022/01/04 08:42:43;;;;;;;11.77;4.17;;;4.60;99.90;4.70;95662.00;;;;5028836;28;20742;-86
2022/01/04 08:45:33;;;;;;;18.67;6.93;;;4.60;99.90;4.80;95666.00;;;;5025204;28;20672;-85
2022/01/04 08:48:22;;;;;;;15.83;6.77;;;4.70;99.90;4.80;95661.00;;;;5028254;28;20277;-84
2022/01/04 08:51:12;;;;;;;6.07;2.87;;;4.80;99.90;4.60;95656.00;;;;5017518;28;20609;-84
2022/01/04 08:54:01;;;;;;;3.77;2.07;;;4.80;99.90;4.80;95666.00;;;;5029506;28;20551;-86
2022/01/04 08:56:51;;;;;;;4.83;1.90;;;4.80;99.90;5.00;95668.00;;;;5029193;28;20207;-85
2022/01/04 08:59:40;;;;;;;4.47;2.17;;;4.90;99.90;5.50;95660.00;;;;5030029;28;20689;-85
2022/01/04 09:02:29;;;;;;;4.53;2.43;;;5.00;99.90;5.80;95663.00;;;;5028414;28;20292;-86
2022/01/04 09:05:18;;;;;;;6.40;2.53;;;5.20;99.90;5.70;95669.00;;;;5018116;28;20212;-86
2022/01/04 09:08:09;;;;;;;3.70;2.13;;;5.40;99.90;5.50;95658.00;;;;5020244;28;20220;-85
2022/01/04 09:10:58;;;;;;;8.23;2.77;;;5.50;99.90;5.50;95664.00;;;;5029832;28;20604;-84
2022/01/04 09:13:47;;;;;;;5.17;2.80;;;5.50;99.90;5.90;95649.00;;;;5035986;28;20680;-83
2022/01/04 09:19:42;;;;;;;9.23;3.13;;;5.70;99.90;6.20;95619.00;;;;5017549;28;20213;-86
2022/01/04 09:22:31;;;;;;;3.50;2.63;;;5.80;99.90;6.00;95612.00;;;;5028414;28;20221;-86
2022/01/04 09:25:21;;;;;;;7.77;4.63;;;5.90;99.90;6.00;95624.00;;;;5027761;28;20205;-85
2022/01/04 09:28:10;;;;;;;7.03;3.80;;;6.00;99.90;6.10;95614.00;;;;5035154;28;20211;-84
2022/01/04 09:30:59;;;;;;;7.53;4.00;;;6.00;99.90;6.10;95599.00;;;;5039421;28;20590;-83
2022/01/04 09:33:48;;;;;;;7.00;3.93;;;6.10;99.90;5.80;95605.00;;;;5029268;28;20696;-84
2022/01/04 09:36:46;;;;;;;7.80;4.37;;;6.10;99.90;6.10;95620.00;;;;5031324;28;20198;-86
2022/01/04 09:39:35;;;;;;;8.93;4.63;;;6.00;99.90;6.20;95605.00;;;;5028992;28;20201;-85
2022/01/04 09:42:26;;;;;;;8.87;5.43;;;6.10;99.90;6.00;95610.00;;;;5030761;28;20225;-85
2022/01/04 09:45:15;;;;;;;4.03;2.47;;;6.10;99.90;5.80;95609.00;;;;5027695;28;20193;-82
2022/01/04 09:48:05;;;;;;;4.40;3.00;;;6.10;99.90;6.10;95609.00;;;;5030178;28;20205;-85
2022/01/04 09:51:52;;;;;;;5.17;4.13;;;6.10;99.90;6.50;95613.00;;;;5028980;28;20224;-85
2022/01/04 09:54:41;;;;;;;7.07;3.87;;;6.20;99.90;6.50;95610.00;;;;5025123;28;20207;-85
2022/01/04 09:57:31;;;;;;;6.77;3.83;;;6.30;99.90;6.30;95601.00;;;;5023957;28;20206;-84
2022/01/04 10:00:20;;;;;;;8.40;3.10;;;4.00;99.90;6.10;95600.00;;;;5032666;28;20384;-85
2022/01/04 10:03:13;;;;;;;5.97;3.30;;;6.40;99.90;6.40;95565.00;;;;5037115;28;20268;-85
2022/01/04 10:06:05;;;;;;;6.47;3.00;;;6.40;99.90;6.30;95573.00;;;;5027000;28;20760;-84
2022/01/04 10:08:56;;;;;;;4.97;2.37;;;6.40;99.90;6.50;95581.00;;;;5059710;28;20219;-81
2022/01/04 10:11:48;;;;;;;7.07;3.37;;;6.40;99.90;6.70;95579.00;;;;5053499;28;20224;-85
2022/01/04 10:14:41;;;;;;;5.50;2.67;;;6.50;99.90;6.90;95569.00;;;;5018047;28;20460;-85
2022/01/04 10:17:32;;;;;;;6.27;4.00;;;6.60;99.90;6.90;95573.00;;;;5027387;28;20216;-84
2022/01/04 10:20:21;;;;;;;10.40;3.93;;;6.60;99.90;7.00;95562.00;;;;5035327;28;20201;-85
2022/01/04 10:23:11;;;;;;;10.63;4.83;;;6.70;99.90;7.00;95569.00;;;;5025970;28;20225;-85
2022/01/04 10:26:04;;;;;;;8.20;3.73;;;6.80;99.90;6.90;95581.00;;;;5032529;28;20194;-85
2022/01/04 10:28:53;;;;;;;6.43;2.60;;;6.80;99.90;6.90;95570.00;;;;5033560;28;20583;-85
2022/01/04 10:31:43;;;;;;;7.17;2.30;;;6.80;99.90;7.00;95593.00;;;;5029734;28;20703;-83
2022/01/04 10:34:46;;;;;;;5.87;2.40;;;6.90;99.90;7.10;95575.00;;;;5039491;28;20576;-83
2022/01/04 10:37:39;;;;;;;4.73;3.43;;;6.90;99.90;7.30;95546.00;;;;5029299;28;20588;-84
2022/01/04 10:40:31;;;;;;;3.67;2.90;;;7.00;99.90;7.50;95551.00;;;;5029233;28;20742;-85
2022/01/04 10:43:23;;;;;;;5.07;3.13;;;7.10;99.90;7.70;95537.00;;;;5033550;28;20232;-85
2022/01/04 10:46:14;;;;;;;4.23;2.80;;;7.20;99.90;7.80;95534.00;;;;5029229;28;20548;-85
2022/01/04 10:49:16;;;;;;;5.97;3.13;;;7.40;99.90;8.10;95531.00;;;;5033415;28;20708;-83
2022/01/04 10:52:07;;;;;;;4.63;2.80;;;7.50;99.90;8.40;95530.00;;;;5027914;28;20231;-85
2022/01/04 10:55:14;;;;;;;6.87;3.30;;;7.70;99.90;8.30;95520.00;;;;5029992;28;20204;-85
2022/01/04 10:58:05;;;;;;;6.77;2.70;;;7.90;99.90;8.30;95511.00;;;;5031581;28;20696;-84
2022/01/04 11:00:57;;;;;;;3.90;2.97;;;8.10;99.90;8.50;95501.00;;;;5027367;28;20266;-83
2022/01/04 11:03:49;;;;;;;6.13;3.10;;;8.20;99.90;8.60;95492.00;;;;5030800;28;20300;-85
2022/01/04 11:06:40;;;;;;;9.77;3.43;;;8.30;99.90;8.90;95501.00;;;;5018224;28;20206;-85
2022/01/04 11:09:30;;;;;;;6.57;3.20;;;8.40;99.90;9.10;95500.00;;;;5029934;28;20209;-83
2022/01/04 11:12:19;;;;;;;6.67;3.67;;;8.60;99.90;9.30;95490.00;;;;5030612;28;20680;-84
2022/01/04 11:15:10;;;;;;;8.47;2.93;;;8.80;99.90;9.70;95476.00;;;;5023758;28;20221;-84
2022/01/04 11:17:59;;;;;;;7.30;3.97;;;9.00;99.90;9.50;95476.00;;;;5027942;28;20239;-83
2022/01/04 11:20:50;;;;;;;6.63;4.00;;;9.20;99.90;9.50;95482.00;;;;5030303;28;20618;-82
2022/01/04 11:23:42;;;;;;;6.77;3.77;;;7.60;99.90;9.80;95479.00;;;;5035338;28;20701;-83
2022/01/04 11:26:32;;;;;;;8.17;2.87;;;9.50;99.90;9.70;95490.00;;;;5026325;28;20205;-85
2022/01/04 11:29:28;;;;;;;6.43;4.30;;;9.70;99.90;10.00;95483.00;;;;5027181;28;20216;-85
2022/01/04 11:32:21;;;;;;;4.60;3.00;;;9.70;99.90;10.10;95465.00;;;;5035251;28;20221;-86
2022/01/04 11:35:16;;;;;;;3.73;3.33;;;9.70;99.90;9.90;95459.00;;;;5030757;28;20608;-82
2022/01/04 11:38:05;;;;;;;8.70;3.40;;;9.70;99.90;9.80;95461.00;;;;5027413;28;20673;-84
2022/01/04 11:40:55;;;;;;;8.30;3.97;;;9.70;99.90;9.90;95452.00;;;;5040540;28;20223;-83
2022/01/04 11:43:44;;;;;;;9.10;3.87;;;9.60;99.90;9.80;95466.00;;;;5024059;28;20663;-84
2022/01/04 11:46:36;;;;;;;11.20;3.70;;;9.50;99.90;9.70;95459.00;;;;5028946;28;20202;-82
2022/01/04 11:49:25;;;;;;;9.03;3.43;;;9.50;99.90;9.80;95450.00;;;;5028476;28;20209;-84
2022/01/04 11:52:39;;;;;;;6.57;3.10;;;9.40;99.90;9.70;95439.00;;;;5028145;28;20236;-84
2022/01/04 11:55:36;;;;;;;13.13;4.47;;;9.40;99.90;9.60;95433.00;;;;5026474;28;20287;-83
2022/01/04 11:58:43;;;;;;;5.83;2.50;;;9.30;99.90;9.50;95449.00;;;;5027056;28;20212;-83
2022/01/04 12:01:31;;;;;;;5.57;2.80;;;9.30;99.90;9.40;95454.00;;;;5021018;28;20217;-83
2022/01/04 12:04:53;;;;;;;12.07;3.77;;;9.30;99.90;9.70;95444.00;;;;5026285;28;20697;-83
2022/01/04 12:07:53;;;;;;;8.47;2.40;;;9.20;99.90;9.80;95439.00;;;;5019281;28;20696;-83
2022/01/04 12:10:42;;;;;;;5.07;3.10;;;9.30;99.90;9.90;95438.00;;;;5029057;28;20252;-84
2022/01/04 12:13:51;;;;;;;7.23;3.40;;;9.40;99.90;9.80;95438.00;;;;5025607;28;20201;-83
2022/01/04 12:16:43;;;;;;;3.83;2.50;;;9.40;99.90;9.80;95439.00;;;;5031907;28;20201;-83
2022/01/04 12:19:48;;;;;;;7.53;3.10;;;9.40;99.90;9.60;95440.00;;;;5028006;28;20223;-84
2022/01/04 12:22:39;;;;;;;9.40;3.80;;;9.40;99.90;9.70;95429.00;;;;5025395;28;20219;-83
2022/01/04 12:25:28;;;;;;;6.40;3.03;;;9.40;99.90;9.50;95420.00;;;;5029396;28;20217;-84
2022/01/04 12:28:18;;;;;;;9.13;3.30;;;9.40;99.90;9.40;95421.00;;;;5029696;28;20204;-83
2022/01/04 12:31:26;;;;;;;5.90;3.20;;;9.40;99.90;9.70;95424.00;;;;5032214;28;20224;-84
2022/01/04 12:34:48;;;;;;;10.33;3.60;;;9.40;99.90;10.00;95414.00;;;;5032831;28;20209;-83
2022/01/04 12:37:37;;;;;;;4.73;3.13;;;9.50;99.90;10.00;95406.00;;;;5042083;28;20204;-83
2022/01/04 12:40:26;;;;;;;4.77;3.20;;;9.60;99.90;10.20;95395.00;;;;5030633;28;20208;-84
2022/01/04 12:43:15;;;;;;;6.13;3.17;;;9.70;99.90;10.50;95395.00;;;;5016598;28;20209;-84
2022/01/04 12:46:05;;;;;;;8.63;3.50;;;9.80;99.90;10.30;95410.00;;;;5017537;28;20214;-84
2022/01/04 12:48:57;;;;;;;7.73;3.47;;;9.90;99.90;10.40;95400.00;;;;5022581;28;20888;-84
2022/01/04 12:51:50;;;;;;;25.63;4.97;;;10.00;99.90;10.50;95397.00;;;;5029042;28;20715;-84
2022/01/04 12:54:40;;;;;;;6.07;3.40;;;10.10;99.90;10.50;95396.00;;;;5029723;28;20621;-83
2022/01/04 12:57:29;;;;;;;9.00;3.33;;;10.10;99.90;10.60;95386.00;;;;5017464;28;20210;-85
2022/01/04 13:00:19;;;;;;;8.10;2.93;;;10.10;99.90;10.50;95376.00;;;;5030359;28;20208;-83
2022/01/04 13:03:10;;;;;;;10.63;2.60;;;10.10;99.90;10.60;95374.00;;;;5032062;28;20211;-84